Time;durP1;ratioP1;P1;durP2;ratioP2;P2;SDS_P1;SDS_P2;PMS_P1;PMS_P2;Temp;Humidity;BMP_temperature;BMP_pressure;BME280_temperature;BME280_humidity;BME280_pressure;Samples;Min_cycle;Max_cycle;Signal;HPM_P1;HPM_P2
2022/08/09 00:00:47;;;;;;;5.37;2.00;;;;;;;22.62;39.19;97966.38;5043426;28;20277;-70
2022/08/09 00:03:12;;;;;;;2.10;1.90;;;;;;;22.64;39.10;97961.63;5037482;28;20259;-69
2022/08/09 00:05:38;;;;;;;2.60;2.00;;;;;;;22.70;39.30;97958.94;5040792;28;20203;-69
2022/08/09 00:08:06;;;;;;;2.17;1.97;;;;;;;22.68;39.05;97960.19;5035915;28;20619;-70
2022/08/09 00:10:31;;;;;;;1.97;1.73;;;;;;;22.73;39.06;97951.53;5043053;28;20180;-70
2022/08/09 00:12:57;;;;;;;4.50;2.00;;;;;;;22.74;39.00;97963.88;5047661;28;20482;-70
2022/08/09 00:15:22;;;;;;;1.93;1.70;;;;;;;22.73;39.13;97956.88;5040891;28;20211;-70
2022/08/09 00:17:48;;;;;;;2.10;1.80;;;;;;;22.64;39.19;97956.28;5037223;28;20190;-71
2022/08/09 00:20:13;;;;;;;7.63;2.13;;;;;;;22.68;39.28;97949.50;5041362;28;20182;-70
2022/08/09 00:22:38;;;;;;;4.73;2.13;;;;;;;22.55;39.48;97951.19;5034563;28;20187;-69
2022/08/09 00:25:04;;;;;;;4.30;1.60;;;;;;;22.38;39.94;97952.66;5046425;28;20182;-71
2022/08/09 00:27:30;;;;;;;6.73;1.83;;;;;;;22.41;39.95;97960.28;5045643;28;20179;-70
2022/08/09 00:29:55;;;;;;;2.10;1.90;;;;;;;22.28;40.10;97966.44;5047693;28;20483;-70
2022/08/09 00:32:21;;;;;;;3.60;1.87;;;;;;;22.24;40.08;97966.03;5047067;28;20183;-70
2022/08/09 00:34:47;;;;;;;2.30;1.93;;;;;;;22.19;40.44;97960.50;5044992;28;20179;-71
2022/08/09 00:37:13;;;;;;;3.13;2.00;;;;;;;22.00;40.98;97969.38;5044696;28;20301;-69
2022/08/09 00:39:39;;;;;;;5.00;2.63;;;;;;;22.02;41.03;97961.97;5022870;28;20644;-70
2022/08/09 00:42:05;;;;;;;3.33;1.90;;;;;;;22.08;40.96;97963.81;5036201;28;20430;-69
2022/08/09 00:44:31;;;;;;;2.80;2.00;;;;;;;22.12;40.83;97958.88;5022072;28;20188;-69
2022/08/09 00:46:56;;;;;;;3.40;2.03;;;;;;;21.96;41.16;97968.97;5032463;28;20439;-70
2022/08/09 00:49:21;;;;;;;7.57;2.20;;;;;;;21.92;41.41;97965.91;5027734;28;20278;-71
2022/08/09 00:51:48;;;;;;;8.40;2.40;;;;;;;21.87;41.48;97959.50;5032120;28;20193;-69
2022/08/09 00:54:14;;;;;;;4.20;1.97;;;;;;;21.90;41.57;97961.78;5029929;28;20232;-69
2022/08/09 00:56:39;;;;;;;4.17;2.00;;;;;;;21.77;41.60;97959.97;5020476;28;20465;-70
2022/08/09 00:59:05;;;;;;;2.23;2.03;;;;;;;21.71;42.07;97966.09;5036507;28;20188;-70
2022/08/09 01:01:34;;;;;;;8.70;2.33;;;;;;;21.75;42.02;97967.34;5020014;28;20650;-70
2022/08/09 01:04:28;;;;;;;3.20;2.10;;;;;;;21.75;41.98;97962.00;5040531;28;20264;-70
2022/08/09 01:07:05;;;;;;;3.30;2.13;;;;;;;21.77;41.81;97959.97;5020786;28;20438;-71
2022/08/09 01:09:38;;;;;;;2.30;1.90;;;;;;;21.73;41.63;97964.06;5032386;28;20481;-70
2022/08/09 01:12:18;;;;;;;2.63;2.23;;;;;;;21.74;41.96;97969.16;5039889;28;20794;-70
2022/08/09 01:14:49;;;;;;;2.10;1.90;;;;;;;21.67;41.86;97965.69;5047423;28;20437;-71
2022/08/09 01:17:24;;;;;;;5.03;1.90;;;;;;;21.68;41.72;97972.69;5042142;28;21026;-70
2022/08/09 01:20:00;;;;;;;3.90;1.93;;;;;;;21.61;42.35;97962.00;5047530;28;20428;-71
2022/08/09 01:23:10;;;;;;;5.43;2.20;;;;;;;21.55;42.17;97967.31;5040959;28;20433;-69
2022/08/09 01:26:08;;;;;;;3.13;2.10;;;;;;;21.48;42.55;97961.97;4994361;28;21031;-69
2022/08/09 01:28:34;;;;;;;2.57;2.10;;;;;;;21.41;42.35;97977.16;5028181;28;20462;-69
2022/08/09 01:31:02;;;;;;;3.67;2.20;;;;;;;21.37;42.92;97970.56;5044091;28;20485;-70
2022/08/09 01:33:31;;;;;;;2.10;1.87;;;;;;;21.39;42.57;97965.88;5044055;28;20525;-69
2022/08/09 01:36:06;;;;;;;4.93;2.30;;;;;;;21.46;42.21;97978.19;5047857;28;20842;-70
2022/08/09 01:38:35;;;;;;;5.37;1.83;;;;;;;21.38;42.43;97977.53;5028394;28;20429;-69
2022/08/09 01:41:05;;;;;;;6.00;2.23;;;;;;;21.33;42.62;97984.31;5044220;28;20453;-70
2022/08/09 01:43:32;;;;;;;3.97;2.03;;;;;;;21.39;42.59;97989.84;5037628;28;20425;-71
2022/08/09 01:45:58;;;;;;;3.27;2.00;;;;;;;21.38;42.56;97986.34;5041472;28;20441;-69
2022/08/09 01:48:24;;;;;;;3.63;2.27;;;;;;;21.34;42.55;97993.13;5045398;28;20453;-69
2022/08/09 01:50:51;;;;;;;7.33;2.37;;;;;;;21.33;42.84;97994.97;5043822;28;20587;-70
2022/08/09 01:53:17;;;;;;;5.83;2.13;;;;;;;21.31;42.71;97985.53;5045040;28;20427;-69
2022/08/09 01:55:43;;;;;;;2.83;2.40;;;;;;;21.24;42.97;97982.03;5038544;28;20454;-69
2022/08/09 01:58:09;;;;;;;3.20;2.00;;;;;;;21.22;42.77;97984.91;5045647;28;20180;-70
2022/08/09 02:00:35;;;;;;;6.20;2.13;;;;;;;21.22;42.86;97995.56;5032227;28;20926;-69
2022/08/09 02:03:01;;;;;;;2.53;2.30;;;;;;;21.23;42.54;97980.41;5023021;28;20512;-69
2022/08/09 02:05:27;;;;;;;4.13;2.00;;;;;;;21.07;43.25;97997.56;5022368;28;20208;-70
2022/08/09 02:08:01;;;;;;;5.10;2.63;;;;;;;21.00;43.64;98000.22;5027256;28;20425;-70
2022/08/09 02:10:31;;;;;;;3.93;2.23;;;;;;;21.04;43.38;97990.81;5043094;28;20206;-70
2022/08/09 02:13:03;;;;;;;2.30;1.97;;;;;;;20.98;43.23;97996.94;5048185;28;20773;-69
2022/08/09 02:15:31;;;;;;;3.17;2.40;;;;;;;20.84;43.32;97990.72;5042694;28;20850;-69
2022/08/09 02:17:57;;;;;;;3.70;2.10;;;;;;;20.91;43.34;97999.59;5045440;28;20979;-71
2022/08/09 02:20:23;;;;;;;2.30;2.10;;;;;;;20.83;43.57;97997.06;5028175;28;20427;-69
2022/08/09 02:23:07;;;;;;;2.23;1.90;;;;;;;20.65;44.41;97992.25;5044152;28;20654;-71
2022/08/09 02:25:35;;;;;;;2.20;2.00;;;;;;;20.75;44.03;97995.41;5045598;28;20444;-70
2022/08/09 02:28:24;;;;;;;3.23;2.27;;;;;;;20.84;43.98;97994.22;5044018;28;20449;-69
2022/08/09 02:30:54;;;;;;;3.33;2.37;;;;;;;20.68;44.10;98000.66;5037016;28;20423;-70
2022/08/09 02:33:25;;;;;;;2.13;2.00;;;;;;;20.73;44.32;97997.41;5034359;28;20427;-71
2022/08/09 02:35:55;;;;;;;5.40;2.10;;;;;;;20.71;44.43;98000.28;5035311;28;20440;-72
2022/08/09 02:38:26;;;;;;;2.90;2.27;;;;;;;20.74;44.14;97995.59;5039679;28;20831;-71
2022/08/09 02:40:53;;;;;;;7.83;2.30;;;;;;;20.70;44.46;98008.47;5038671;28;20775;-70
2022/08/09 02:43:19;;;;;;;5.33;2.30;;;;;;;20.62;44.80;98000.63;5044569;28;20481;-70
2022/08/09 02:45:44;;;;;;;2.40;2.20;;;;;;;20.66;44.61;98005.41;5044482;28;20471;-73
2022/08/09 02:48:14;;;;;;;4.93;2.37;;;;;;;20.66;44.62;98002.72;5045964;28;20980;-71
2022/08/09 02:50:46;;;;;;;3.13;2.43;;;;;;;20.67;45.07;97999.03;5009281;28;20182;-71
2022/08/09 02:53:17;;;;;;;2.57;2.37;;;;;;;20.68;44.77;97992.69;5036564;28;20441;-70
2022/08/09 02:55:43;;;;;;;2.80;2.27;;;;;;;20.66;44.88;97991.25;5045922;28;20433;-70
2022/08/09 02:58:09;;;;;;;3.40;2.30;;;;;;;20.44;45.27;98003.81;5040238;28;20496;-70
2022/08/09 03:00:36;;;;;;;3.40;2.23;;;;;;;20.40;45.42;98004.25;5044314;28;20426;-70
2022/08/09 03:03:03;;;;;;;4.27;2.30;;;;;;;20.42;45.17;97999.50;5037031;28;20221;-70
2022/08/09 03:05:29;;;;;;;5.07;2.70;;;;;;;20.38;45.56;98002.78;5039216;28;20456;-70
2022/08/09 03:07:55;;;;;;;7.73;2.67;;;;;;;20.44;45.65;97998.50;5041486;28;20425;-70
2022/08/09 03:10:22;;;;;;;3.60;2.00;;;;;;;20.39;45.74;98002.59;5036525;28;20427;-70
2022/08/09 03:12:48;;;;;;;3.40;2.43;;;;;;;20.44;45.44;97998.50;5040554;28;20418;-69
2022/08/09 03:15:14;;;;;;;6.60;2.50;;;;;;;20.37;45.62;97993.97;5043379;28;20418;-69
2022/08/09 03:17:43;;;;;;;4.93;2.93;;;;;;;20.33;45.72;98002.56;5019281;28;20481;-71
2022/08/09 03:20:10;;;;;;;2.80;2.60;;;;;;;20.38;45.56;97994.78;5015850;28;20518;-71
2022/08/09 03:22:38;;;;;;;5.47;2.70;;;;;;;20.30;46.06;97998.41;5020937;28;20507;-70
2022/08/09 03:25:04;;;;;;;2.70;2.40;;;;;;;20.11;46.20;97994.63;5026625;28;20434;-70
2022/08/09 03:27:30;;;;;;;6.23;2.70;;;;;;;20.16;46.61;98005.50;5017612;28;20518;-70
2022/08/09 03:29:56;;;;;;;2.73;2.53;;;;;;;20.13;46.37;98002.41;5019107;28;20215;-70
2022/08/09 03:32:22;;;;;;;3.80;2.50;;;;;;;20.17;46.25;98006.31;5019193;28;20881;-70
2022/08/09 03:34:48;;;;;;;10.73;2.33;;;;;;;20.18;46.22;98011.47;5017055;28;20497;-70
2022/08/09 03:37:14;;;;;;;5.13;2.43;;;;;;;20.14;46.52;97996.09;5017770;28;20554;-71
2022/08/09 03:39:39;;;;;;;3.40;2.23;;;;;;;20.09;46.56;98009.97;5015297;28;20574;-70
2022/08/09 03:42:05;;;;;;;5.63;2.40;;;;;;;20.12;46.31;98011.41;5031826;28;20183;-70
2022/08/09 03:44:30;;;;;;;5.03;3.00;;;;;;;20.15;46.51;98011.03;5040931;28;20176;-71
2022/08/09 03:46:56;;;;;;;2.90;2.47;;;;;;;20.17;46.58;98014.31;5016955;28;20215;-70
2022/08/09 03:49:23;;;;;;;3.03;2.40;;;;;;;20.05;46.68;98012.19;5023638;28;20307;-70
2022/08/09 03:51:53;;;;;;;3.80;2.60;;;;;;;19.88;47.18;98010.84;5014173;28;20554;-71
2022/08/09 03:54:19;;;;;;;3.77;2.97;;;;;;;19.99;47.04;98010.31;5015478;28;20415;-71
2022/08/09 03:56:45;;;;;;;5.53;2.93;;;;;;;19.98;47.18;98015.81;5013141;28;20505;-71
2022/08/09 03:59:12;;;;;;;3.80;3.13;;;;;;;19.98;47.14;98008.66;5015354;28;20416;-70
2022/08/09 04:01:38;;;;;;;3.83;2.60;;;;;;;19.96;47.03;98013.34;5015115;28;20177;-71
2022/08/09 04:04:04;;;;;;;2.73;2.37;;;;;;;19.90;47.29;98011.47;5015856;28;20428;-71
2022/08/09 04:06:30;;;;;;;5.57;2.50;;;;;;;19.93;47.09;98016.38;5018747;28;20506;-71
2022/08/09 04:08:55;;;;;;;7.00;3.00;;;;;;;19.88;47.37;98016.97;5017604;28;20227;-70
2022/08/09 04:11:20;;;;;;;8.60;2.90;;;;;;;19.89;47.39;98015.16;5025818;28;20186;-70
2022/08/09 04:13:46;;;;;;;4.63;3.13;;;;;;;19.92;47.36;98018.25;5016540;28;20177;-70
2022/08/09 04:16:11;;;;;;;4.07;2.43;;;;;;;19.79;47.76;98026.06;5018846;28;20207;-72
2022/08/09 04:18:39;;;;;;;2.70;2.50;;;;;;;19.66;48.14;98026.75;5022746;28;20176;-69
2022/08/09 04:21:05;;;;;;;3.33;3.03;;;;;;;19.65;48.20;98027.81;5019116;28;20181;-70
2022/08/09 04:23:31;;;;;;;4.40;2.93;;;;;;;19.68;47.99;98027.41;5019119;28;20463;-70
2022/08/09 04:25:56;;;;;;;3.70;2.70;;;;;;;19.68;48.13;98035.38;5017602;28;20439;-69
2022/08/09 04:28:23;;;;;;;3.43;2.80;;;;;;;19.66;48.15;98034.75;5018974;28;20305;-70
2022/08/09 04:30:48;;;;;;;2.90;2.60;;;;;;;19.70;48.00;98041.34;5019295;28;20180;-70
2022/08/09 04:33:14;;;;;;;3.60;3.10;;;;;;;19.72;47.92;98041.97;5026046;28;21012;-69
2022/08/09 04:35:41;;;;;;;4.03;3.40;;;;;;;19.74;48.17;98045.25;5034187;28;20281;-70
2022/08/09 04:38:06;;;;;;;6.43;3.10;;;;;;;19.66;48.19;98048.03;5039012;28;20194;-69
2022/08/09 04:40:47;;;;;;;3.13;2.80;;;;;;;19.63;48.30;98053.75;5038637;28;20427;-69
2022/08/09 04:43:14;;;;;;;3.50;3.20;;;;;;;19.66;48.24;98050.69;5042734;28;20527;-69
2022/08/09 04:45:40;;;;;;;8.03;3.57;;;;;;;19.67;48.29;98060.31;5038261;28;20484;-68
2022/08/09 04:48:05;;;;;;;3.03;2.73;;;;;;;19.67;48.51;98057.66;5044203;28;20485;-69
2022/08/09 04:50:31;;;;;;;5.40;3.20;;;;;;;19.66;48.43;98056.00;5038395;28;20187;-69
2022/08/09 04:52:56;;;;;;;3.30;2.93;;;;;;;19.72;48.71;98059.78;5036146;28;20546;-69
2022/08/09 04:55:22;;;;;;;6.03;3.07;;;;;;;19.75;48.87;98068.19;5042489;28;20186;-68
2022/08/09 04:57:47;;;;;;;5.53;3.20;;;;;;;19.70;49.25;98061.78;5046215;28;20274;-69
2022/08/09 05:00:13;;;;;;;3.27;2.97;;;;;;;19.76;49.16;98067.19;5044540;28;20180;-69
2022/08/09 05:02:40;;;;;;;6.97;3.33;;;;;;;19.70;49.17;98070.59;5037326;28;20205;-69
2022/08/09 05:05:07;;;;;;;4.20;3.50;;;;;;;19.69;49.44;98070.78;5035744;28;20551;-69
2022/08/09 05:07:32;;;;;;;4.43;3.37;;;;;;;19.75;49.31;98070.84;5020240;28;20517;-68
2022/08/09 05:09:58;;;;;;;8.80;3.00;;;;;;;19.79;49.16;98071.28;5026181;28;20478;-69
2022/08/09 05:12:23;;;;;;;5.43;3.00;;;;;;;19.88;49.08;98078.16;5023167;28;20264;-69
2022/08/09 05:14:48;;;;;;;7.20;3.53;;;;;;;19.96;48.92;98077.19;5042744;28;20770;-69
2022/08/09 05:17:14;;;;;;;7.00;3.30;;;;;;;20.05;48.86;98075.22;5034371;28;20270;-70
2022/08/09 05:19:39;;;;;;;4.07;3.53;;;;;;;20.09;48.76;98074.66;5022753;28;20268;-69
2022/08/09 05:22:05;;;;;;;6.60;3.73;;;;;;;20.20;49.01;98077.78;5031901;28;20255;-68
2022/08/09 05:24:30;;;;;;;8.10;4.17;;;;;;;20.29;49.03;98081.94;5034035;28;20188;-68
2022/08/09 05:26:56;;;;;;;5.60;3.30;;;;;;;20.36;48.57;98077.50;5024737;28;20254;-69
2022/08/09 05:29:21;;;;;;;5.07;3.70;;;;;;;20.47;48.40;98077.97;5023406;28;20688;-69
2022/08/09 05:31:47;;;;;;;3.60;3.30;;;;;;;20.55;48.16;98075.16;5041350;28;20187;-69
2022/08/09 05:34:14;;;;;;;7.40;3.83;;;;;;;20.64;48.13;98074.00;5023614;28;20195;-69
2022/08/09 05:36:40;;;;;;;9.87;3.43;;;;;;;20.69;48.51;98087.53;5036375;28;20207;-69
2022/08/09 05:39:05;;;;;;;4.90;3.53;;;;;;;20.74;48.27;98086.94;5026558;28;20423;-70
2022/08/09 05:41:31;;;;;;;4.23;3.77;;;;;;;20.70;48.02;98083.06;5038386;28;20427;-70
2022/08/09 05:43:56;;;;;;;7.97;3.90;;;;;;;20.74;47.95;98083.47;5044498;28;20190;-69
2022/08/09 05:46:22;;;;;;;6.83;4.13;;;;;;;20.86;47.91;98084.59;5040659;28;20746;-69
2022/08/09 05:48:47;;;;;;;4.67;3.60;;;;;;;20.99;47.71;98087.31;5047512;28;20207;-69
2022/08/09 05:51:13;;;;;;;12.60;3.23;;;;;;;21.10;47.52;98082.44;5043373;28;20266;-69
2022/08/09 05:53:38;;;;;;;8.80;4.07;;;;;;;21.20;47.11;98085.56;5048684;28;20225;-69
2022/08/09 05:56:04;;;;;;;6.40;3.67;;;;;;;21.36;47.55;98091.56;5045014;28;20213;-69
2022/08/09 05:58:29;;;;;;;10.70;3.30;;;;;;;21.45;47.02;98087.69;5033276;28;20724;-70
2022/08/09 06:00:55;;;;;;;8.17;3.97;;;;;;;21.61;46.66;98089.22;5043923;28;20198;-69
2022/08/09 06:03:20;;;;;;;8.60;3.87;;;;;;;21.74;46.46;98094.53;5040478;28;20183;-69
2022/08/09 06:05:46;;;;;;;3.43;3.13;;;;;;;21.88;46.18;98102.56;5047478;28;20203;-69
2022/08/09 06:08:11;;;;;;;7.73;3.40;;;;;;;22.00;46.13;98102.81;5040922;28;20199;-69
2022/08/09 06:10:37;;;;;;;7.67;2.93;;;;;;;22.16;45.88;98099.72;5044977;28;20655;-69
2022/08/09 06:13:09;;;;;;;6.90;3.27;;;;;;;22.31;45.48;98099.53;5045489;28;20191;-69
2022/08/09 06:15:35;;;;;;;3.00;2.70;;;;;;;22.52;45.20;98105.69;5031209;28;20199;-69
2022/08/09 06:18:00;;;;;;;10.10;3.27;;;;;;;22.72;45.15;98105.66;5046096;28;20794;-69
2022/08/09 06:20:26;;;;;;;5.80;2.90;;;;;;;22.91;44.70;98108.50;5041682;28;20190;-69
2022/08/09 06:22:51;;;;;;;3.93;3.00;;;;;;;23.04;43.93;98110.28;5047108;28;20256;-70
2022/08/09 06:25:17;;;;;;;3.87;3.07;;;;;;;23.19;43.04;98112.72;5041791;28;20184;-70
2022/08/09 06:27:42;;;;;;;2.63;2.43;;;;;;;23.36;42.00;98110.41;5042469;28;20192;-70
2022/08/09 06:30:09;;;;;;;5.53;2.97;;;;;;;23.53;41.73;98113.41;5040957;28;20612;-69
2022/08/09 06:32:35;;;;;;;11.00;2.57;;;;;;;23.71;41.49;98110.81;5042609;28;20180;-70
2022/08/09 06:35:00;;;;;;;5.07;2.80;;;;;;;23.89;41.07;98109.28;5043970;28;20421;-70
2022/08/09 06:37:25;;;;;;;4.37;2.50;;;;;;;24.08;40.72;98111.00;5039304;28;20219;-68
2022/08/09 06:39:51;;;;;;;3.37;2.70;;;;;;;24.26;40.31;98117.47;5029196;28;20654;-69
2022/08/09 06:42:19;;;;;;;2.90;2.63;;;;;;;24.45;39.19;98122.84;5045233;28;20210;-69
2022/08/09 06:44:44;;;;;;;7.20;2.97;;;;;;;24.63;39.21;98114.06;5043879;28;20677;-69
2022/08/09 06:47:09;;;;;;;4.63;2.50;;;;;;;24.79;38.57;98123.41;5045058;28;20529;-69
2022/08/09 06:49:35;;;;;;;4.80;2.80;;;;;;;24.95;38.50;98112.09;5043564;28;20300;-70
2022/08/09 06:52:00;;;;;;;5.10;2.73;;;;;;;25.09;38.21;98119.97;5046107;28;20194;-69
2022/08/09 06:54:26;;;;;;;6.23;2.47;;;;;;;25.27;38.08;98125.34;5045940;28;20190;-72
2022/08/09 06:56:51;;;;;;;6.13;2.10;;;;;;;25.42;37.64;98116.91;5045250;28;20214;-70
2022/08/09 06:59:17;;;;;;;2.57;2.23;;;;;;;25.56;37.49;98122.94;5043716;28;20274;-69
2022/08/09 07:01:42;;;;;;;5.40;2.73;;;;;;;25.66;37.07;98116.19;5027900;28;20191;-70
2022/08/09 07:04:08;;;;;;;3.40;2.60;;;;;;;25.79;36.84;98120.53;5045999;28;20266;-69
2022/08/09 07:06:34;;;;;;;5.00;2.60;;;;;;;25.90;36.70;98122.44;5043068;28;20199;-70
2022/08/09 07:08:59;;;;;;;6.10;2.70;;;;;;;26.05;36.77;98125.53;5045423;28;20272;-71
2022/08/09 07:11:25;;;;;;;3.40;2.70;;;;;;;26.19;36.27;98122.66;5045923;28;20687;-70
2022/08/09 07:13:50;;;;;;;4.90;3.20;;;;;;;26.29;35.66;98128.28;5045008;28;20194;-69
2022/08/09 07:16:15;;;;;;;5.60;2.40;;;;;;;26.38;35.68;98128.75;5047271;28;20716;-70
2022/08/09 07:18:41;;;;;;;5.13;2.70;;;;;;;26.45;35.43;98126.78;5040110;28;20665;-70
2022/08/09 07:21:06;;;;;;;3.77;2.23;;;;;;;26.56;35.59;98132.41;5044373;28;20190;-69
2022/08/09 07:23:32;;;;;;;8.63;2.60;;;;;;;26.71;35.60;98132.75;5035076;28;20198;-69
2022/08/09 07:25:57;;;;;;;8.10;2.70;;;;;;;26.85;35.45;98137.88;5020300;28;20211;-70
2022/08/09 07:28:23;;;;;;;5.30;2.67;;;;;;;27.00;35.29;98137.41;5022783;28;20203;-70
2022/08/09 07:30:49;;;;;;;3.90;2.60;;;;;;;27.10;34.86;98143.81;5029718;28;20209;-70
2022/08/09 07:33:14;;;;;;;10.20;2.93;;;;;;;27.26;34.96;98136.91;5037542;28;20183;-70
2022/08/09 07:35:40;;;;;;;3.30;2.47;;;;;;;27.41;34.53;98141.75;5026237;28;20235;-70
2022/08/09 07:38:05;;;;;;;3.93;2.57;;;;;;;27.51;34.09;98140.34;5032832;28;20756;-70
2022/08/09 07:40:31;;;;;;;4.70;2.57;;;;;;;27.68;34.24;98135.00;5030779;28;20214;-70
2022/08/09 07:42:58;;;;;;;4.30;3.00;;;;;;;27.79;33.67;98141.41;5044574;28;20179;-69
2022/08/09 07:45:26;;;;;;;5.47;2.97;;;;;;;27.94;33.68;98147.06;5041091;28;20673;-69
2022/08/09 07:47:52;;;;;;;5.23;2.93;;;;;;;28.03;33.16;98137.50;5043931;28;20881;-69
2022/08/09 07:50:22;;;;;;;4.60;2.60;;;;;;;28.14;32.60;98138.53;5035178;28;20427;-69
2022/08/09 07:52:48;;;;;;;5.93;2.43;;;;;;;28.26;31.53;98141.16;5043915;28;20997;-69
2022/08/09 07:55:14;;;;;;;8.67;2.10;;;;;;;28.38;31.83;98143.78;5032052;28;20435;-70
2022/08/09 07:57:39;;;;;;;2.67;2.43;;;;;;;28.49;32.16;98144.72;5033926;28;20557;-70
2022/08/09 08:00:08;;;;;;;7.67;2.50;;;;;;;28.60;31.58;98138.44;5017102;28;20442;-70
2022/08/09 08:02:34;;;;;;;3.43;2.03;;;;;;;28.72;30.58;98148.31;5036022;28;20190;-70
2022/08/09 08:04:59;;;;;;;2.53;1.80;;;;;;;28.83;29.85;98144.72;5025861;28;20480;-71
2022/08/09 08:07:25;;;;;;;1.90;1.80;;;;;;;28.92;30.45;98142.44;5025717;28;20257;-69
2022/08/09 08:09:51;;;;;;;2.70;2.00;;;;;;;29.01;30.12;98146.31;5026789;28;20551;-70
2022/08/09 08:12:18;;;;;;;3.70;1.87;;;;;;;29.11;30.10;98149.13;5024143;28;20193;-69
2022/08/09 08:14:43;;;;;;;1.90;1.67;;;;;;;29.25;29.77;98152.25;5030696;28;20445;-70
2022/08/09 08:17:09;;;;;;;5.37;2.00;;;;;;;29.27;28.98;98146.63;5017111;28;20815;-72
2022/08/09 08:19:34;;;;;;;2.50;1.73;;;;;;;29.38;29.35;98148.41;5033123;28;20183;-70
2022/08/09 08:22:00;;;;;;;3.17;1.70;;;;;;;29.50;29.15;98145.56;5022740;28;20180;-70
2022/08/09 08:24:25;;;;;;;3.10;1.80;;;;;;;29.53;28.28;98146.97;5038705;28;20214;-69
2022/08/09 08:26:51;;;;;;;2.27;1.90;;;;;;;29.62;28.27;98148.13;5029168;28;20214;-69
2022/08/09 08:29:18;;;;;;;2.27;1.80;;;;;;;29.68;28.42;98151.69;5026420;28;20291;-69
2022/08/09 08:31:44;;;;;;;2.33;1.80;;;;;;;29.77;28.28;98147.47;5037647;28;20189;-70
2022/08/09 08:34:09;;;;;;;2.60;1.90;;;;;;;29.87;27.97;98154.88;5020352;28;20520;-71
2022/08/09 08:36:35;;;;;;;3.27;1.80;;;;;;;29.94;28.51;98162.75;5033528;28;20550;-68
2022/08/09 08:39:01;;;;;;;2.03;1.70;;;;;;;30.07;28.23;98158.84;5023102;28;20180;-68
2022/08/09 08:41:27;;;;;;;5.43;1.70;;;;;;;30.11;27.85;98158.09;5020030;28;20232;-69
2022/08/09 08:43:53;;;;;;;4.67;2.00;;;;;;;30.27;28.05;98160.91;5046309;28;20716;-69
2022/08/09 08:46:20;;;;;;;1.93;1.83;;;;;;;30.33;27.40;98159.91;5038169;28;20443;-70
2022/08/09 08:48:46;;;;;;;1.80;1.70;;;;;;;30.37;27.54;98149.38;5047401;28;20203;-69
2022/08/09 08:51:11;;;;;;;2.40;1.70;;;;;;;30.37;27.21;98154.78;5044268;28;20425;-69
2022/08/09 08:53:37;;;;;;;3.83;1.73;;;;;;;30.53;27.25;98153.81;5040301;28;20427;-69
2022/08/09 08:56:04;;;;;;;2.30;1.93;;;;;;;30.65;27.50;98161.75;5041494;28;20727;-69
2022/08/09 08:58:31;;;;;;;2.80;1.73;;;;;;;30.58;26.68;98162.00;5042632;28;20182;-69
2022/08/09 09:00:57;;;;;;;4.40;1.90;;;;;;;30.68;27.05;98166.66;5044685;28;20505;-68
2022/08/09 09:03:26;;;;;;;4.20;1.90;;;;;;;30.87;26.77;98160.84;5040473;28;20510;-69
2022/08/09 09:05:53;;;;;;;3.23;1.70;;;;;;;31.04;27.00;98156.03;5041014;28;20269;-69
2022/08/09 09:08:19;;;;;;;1.87;1.77;;;;;;;31.19;26.63;98159.94;5039629;28;20470;-67
2022/08/09 09:10:46;;;;;;;2.33;1.67;;;;;;;31.40;26.67;98155.41;5048112;28;20446;-69
2022/08/09 09:13:13;;;;;;;3.10;1.70;;;;;;;31.43;26.17;98157.59;5036721;28;20433;-67
2022/08/09 09:15:38;;;;;;;2.73;1.90;;;;;;;31.50;26.32;98154.63;5050112;28;20917;-70
2022/08/09 09:18:04;;;;;;;3.20;1.67;;;;;;;31.65;26.15;98143.81;5045846;28;20425;-72
2022/08/09 09:20:33;;;;;;;3.40;2.10;;;;;;;31.81;26.21;98143.88;5042843;28;20187;-69
2022/08/09 09:22:59;;;;;;;2.33;2.10;;;;;;;31.95;26.24;98152.28;5048312;28;20218;-70
2022/08/09 09:25:41;;;;;;;3.17;1.93;;;;;;;32.08;25.80;98142.81;5043745;28;20856;-71
2022/08/09 09:28:07;;;;;;;2.33;1.97;;;;;;;32.30;25.78;98146.09;5041149;28;20187;-69
2022/08/09 09:30:34;;;;;;;6.60;2.13;;;;;;;32.45;25.34;98141.75;5045534;28;20457;-70
2022/08/09 09:33:11;;;;;;;5.30;2.10;;;;;;;32.45;24.94;98139.84;5048325;28;20418;-70
2022/08/09 09:36:11;;;;;;;3.53;1.87;;;;;;;32.57;25.11;98139.56;5041022;28;20449;-70
2022/08/09 09:38:51;;;;;;;3.80;1.70;;;;;;;32.68;24.92;98145.81;5013224;28;20742;-69
2022/08/09 09:41:27;;;;;;;2.00;1.90;;;;;;;32.70;24.54;98148.22;5040303;28;20471;-70
2022/08/09 09:43:54;;;;;;;5.93;2.20;;;;;;;32.85;24.61;98139.25;5049315;28;20413;-69
2022/08/09 09:46:19;;;;;;;2.87;1.73;;;;;;;32.91;24.42;98133.53;5023205;28;20450;-69
2022/08/09 09:49:00;;;;;;;3.40;2.00;;;;;;;33.05;24.16;98136.50;5029739;28;20453;-70
2022/08/09 09:51:28;;;;;;;7.10;2.00;;;;;;;33.21;24.08;98136.41;5043045;28;20179;-68
2022/08/09 09:54:11;;;;;;;2.90;1.73;;;;;;;33.35;23.45;98132.03;5050445;28;20437;-68
2022/08/09 09:56:42;;;;;;;4.73;1.87;;;;;;;33.50;22.67;98125.72;5044786;28;20452;-68
2022/08/09 09:59:09;;;;;;;3.73;2.50;;;;;;;33.50;22.13;98127.59;5049405;28;20422;-68
2022/08/09 10:01:35;;;;;;;3.83;1.80;;;;;;;33.53;21.76;98127.06;5037449;28;20517;-68
2022/08/09 10:04:00;;;;;;;2.70;1.50;;;;;;;33.66;22.20;98131.88;5045956;28;20425;-69
2022/08/09 10:06:27;;;;;;;1.80;1.40;;;;;;;33.68;21.74;98134.28;5044523;28;20472;-67
2022/08/09 10:08:59;;;;;;;6.23;1.77;;;;;;;33.69;21.06;98138.63;5045540;28;20221;-69
2022/08/09 10:11:28;;;;;;;2.10;1.67;;;;;;;33.72;21.00;98140.78;5038810;28;20433;-69
2022/08/09 10:13:53;;;;;;;1.60;1.50;;;;;;;33.62;21.43;98141.66;5046394;28;20442;-70
2022/08/09 10:16:31;;;;;;;1.77;1.63;;;;;;;33.77;22.04;98129.91;5048527;28;21024;-70
2022/08/09 10:19:00;;;;;;;2.23;1.77;;;;;;;33.64;21.88;98144.13;5035966;28;20594;-69
2022/08/09 10:21:26;;;;;;;2.03;1.73;;;;;;;33.71;22.37;98128.31;5044705;28;20424;-72
2022/08/09 10:23:53;;;;;;;3.77;1.70;;;;;;;33.74;21.63;98137.78;5041464;28;20426;-68
2022/08/09 10:26:20;;;;;;;1.80;1.70;;;;;;;33.81;22.20;98132.84;5048535;28;20694;-70
2022/08/09 10:28:46;;;;;;;3.40;1.43;;;;;;;33.97;22.08;98130.88;5033004;28;20462;-70
2022/08/09 10:31:13;;;;;;;5.63;1.67;;;;;;;33.85;21.54;98128.47;5048155;28;20536;-70
2022/08/09 10:33:39;;;;;;;5.30;1.43;;;;;;;34.08;21.24;98118.00;5046403;28;20186;-69
2022/08/09 10:36:07;;;;;;;3.67;1.90;;;;;;;34.14;21.08;98114.97;5032802;28;20450;-71
2022/08/09 10:38:32;;;;;;;1.70;1.33;;;;;;;34.36;21.81;98113.66;5027470;28;21037;-70
2022/08/09 10:40:58;;;;;;;2.47;1.23;;;;;;;34.50;21.09;98110.31;5021939;28;20576;-69
2022/08/09 10:43:24;;;;;;;1.80;1.57;;;;;;;34.61;21.16;98109.09;5032861;28;21750;-70
2022/08/09 10:45:50;;;;;;;2.87;1.60;;;;;;;34.79;20.89;98104.00;5020460;28;20208;-69
2022/08/09 10:48:28;;;;;;;1.70;1.30;;;;;;;34.90;20.43;98095.44;5021692;28;20435;-70
2022/08/09 10:51:13;;;;;;;2.00;1.40;;;;;;;35.08;20.24;98100.41;5016660;28;20199;-71
2022/08/09 10:54:09;;;;;;;2.70;1.53;;;;;;;35.11;19.70;98091.66;5016756;28;20430;-68
2022/08/09 10:56:37;;;;;;;1.50;1.40;;;;;;;35.15;19.73;98098.16;5021632;28;20499;-68
2022/08/09 10:59:21;;;;;;;4.20;1.20;;;;;;;35.18;19.47;98100.28;5021578;28;20443;-69
2022/08/09 11:01:48;;;;;;;5.37;1.20;;;;;;;35.25;19.82;98108.09;5018422;28;20430;-69
2022/08/09 11:04:22;;;;;;;2.20;1.40;;;;;;;35.24;19.12;98112.75;5032050;28;20418;-69
2022/08/09 11:06:56;;;;;;;3.00;1.37;;;;;;;35.30;19.84;98108.81;5025193;28;20448;-70
2022/08/09 11:09:42;;;;;;;6.10;1.60;;;;;;;35.27;19.47;98106.72;5032817;28;20473;-70
2022/08/09 11:12:33;;;;;;;4.43;1.57;;;;;;;35.39;19.85;98108.19;5022569;28;20426;-69
2022/08/09 11:15:22;;;;;;;1.67;1.47;;;;;;;35.30;18.57;98095.22;5027595;28;20424;-70
2022/08/09 11:17:49;;;;;;;2.63;1.43;;;;;;;35.30;18.91;98113.47;5030546;28;20508;-69
2022/08/09 11:20:15;;;;;;;3.67;1.80;;;;;;;35.39;18.88;98108.19;5017006;28;20431;-69
2022/08/09 11:22:43;;;;;;;3.13;1.67;;;;;;;35.47;19.14;98102.09;5034162;28;20448;-69
2022/08/09 11:25:11;;;;;;;1.50;1.40;;;;;;;35.26;18.58;98096.09;5019236;28;20426;-69
2022/08/09 11:27:53;;;;;;;6.47;1.60;;;;;;;35.44;18.54;98089.06;5030207;28;20446;-69
2022/08/09 11:30:22;;;;;;;2.30;1.60;;;;;;;35.50;18.58;98094.13;5028158;28;20836;-69
2022/08/09 11:33:02;;;;;;;2.53;1.30;;;;;;;35.63;17.63;98092.59;5036175;28;20425;-69
2022/08/09 11:35:34;;;;;;;5.80;1.50;;;;;;;35.60;17.64;98082.28;5028182;28;20485;-69
2022/08/09 11:38:38;;;;;;;4.13;1.20;;;;;;;35.64;18.11;98099.69;5029163;28;20441;-69